Time;durP1;ratioP1;P1;durP2;ratioP2;P2;SDS_P1;SDS_P2;PMS_P1;PMS_P2;Temp;Humidity;BMP_temperature;BMP_pressure;BME280_temperature;BME280_humidity;BME280_pressure;Samples;Min_cycle;Max_cycle;Signal;HPM_P1;HPM_P2
2024/04/22 00:00:35;;;;;;;4.28;3.80;;;;;;;4.31;70.91;96973.81;5211656;27;20007;-74
2024/04/22 00:03:04;;;;;;;6.43;3.97;;;;;;;4.29;70.46;96978.31;5211205;27;20348;-73
2024/04/22 00:05:34;;;;;;;4.85;4.13;;;;;;;4.30;71.51;96979.91;5211142;27;20003;-74
2024/04/22 00:08:03;;;;;;;5.20;4.00;;;;;;;4.32;71.50;96986.56;5211239;27;20004;-74
2024/04/22 00:10:30;;;;;;;4.53;3.70;;;;;;;4.35;70.77;96988.06;5210549;27;20004;-74
2024/04/22 00:12:59;;;;;;;4.15;3.75;;;;;;;4.37;70.64;96983.59;5210005;27;20004;-74
2024/04/22 00:15:26;;;;;;;4.72;3.75;;;;;;;4.36;69.70;96971.66;5210870;27;20468;-74
2024/04/22 00:17:55;;;;;;;5.68;3.63;;;;;;;4.31;69.15;96968.66;5210383;27;20003;-74
2024/04/22 00:20:22;;;;;;;4.55;3.47;;;;;;;4.30;69.27;96967.00;5210489;27;20008;-74
2024/04/22 00:22:54;;;;;;;4.60;2.92;;;;;;;4.31;68.97;96968.66;5210365;27;20024;-74
2024/04/22 00:25:20;;;;;;;4.35;3.58;;;;;;;4.32;69.00;96973.66;5210246;27;20000;-74
2024/04/22 00:27:50;;;;;;;5.20;4.07;;;;;;;4.34;69.61;96971.78;5210488;27;20019;-74
2024/04/22 00:30:16;;;;;;;8.60;4.20;;;;;;;4.37;70.04;96968.09;5210640;27;20360;-74
2024/04/22 00:32:47;;;;;;;6.60;4.35;;;;;;;4.39;70.35;96968.78;5210553;27;20018;-74
2024/04/22 00:35:14;;;;;;;5.43;4.38;;;;;;;4.41;70.49;96969.47;5210531;27;20015;-74
2024/04/22 00:37:43;;;;;;;5.00;3.97;;;;;;;4.41;69.45;96971.25;5210204;27;20101;-74
2024/04/22 00:40:13;;;;;;;4.63;4.07;;;;;;;4.38;69.05;96967.16;5210913;27;20082;-74
2024/04/22 00:42:43;;;;;;;10.32;5.10;;;;;;;4.39;69.02;96973.13;5219261;27;19996;-74
2024/04/22 00:45:10;;;;;;;4.72;3.53;;;;;;;4.34;68.58;96970.97;5231287;27;20000;-74
2024/04/22 00:47:40;;;;;;;5.40;3.90;;;;;;;4.33;68.00;96971.94;5231802;27;19996;-74
2024/04/22 00:50:08;;;;;;;5.43;3.65;;;;;;;4.29;68.56;96967.97;5231268;27;19999;-73
2024/04/22 00:52:38;;;;;;;5.30;4.00;;;;;;;4.26;68.19;96973.38;5211814;27;20004;-74
2024/04/22 00:55:06;;;;;;;4.75;3.53;;;;;;;4.24;68.35;96970.13;5211364;27;20056;-74
2024/04/22 00:57:39;;;;;;;4.75;3.80;;;;;;;4.25;69.27;96974.34;5210007;27;20003;-74
2024/04/22 01:00:07;;;;;;;5.28;4.05;;;;;;;4.27;68.72;96975.84;5210507;27;20403;-74
2024/04/22 01:02:37;;;;;;;5.53;3.65;;;;;;;4.25;68.89;96976.94;5210559;27;20008;-74
2024/04/22 01:05:04;;;;;;;4.38;3.60;;;;;;;4.26;68.82;96970.81;5210155;27;20004;-73
2024/04/22 01:07:34;;;;;;;4.85;3.70;;;;;;;4.27;68.55;96967.28;5209978;27;20079;-74
2024/04/22 01:10:02;;;;;;;5.05;4.18;;;;;;;4.28;68.33;96972.28;5209449;27;20061;-74
2024/04/22 01:12:31;;;;;;;6.47;3.33;;;;;;;4.25;67.75;96969.19;5209611;27;20022;-74
2024/04/22 01:15:01;;;;;;;5.57;3.40;;;;;;;4.19;67.21;96967.94;5209972;27;20434;-74
2024/04/22 01:17:37;;;;;;;4.65;3.78;;;;;;;4.12;66.95;96962.47;5209574;27;20018;-74
2024/04/22 01:20:05;;;;;;;4.95;3.13;;;;;;;4.09;67.13;96962.75;5210422;27;20019;-74
2024/04/22 01:22:37;;;;;;;5.72;3.30;;;;;;;4.08;67.44;96961.13;5210670;27;20015;-74
2024/04/22 01:25:05;;;;;;;5.05;3.90;;;;;;;4.09;68.19;96959.38;5213282;27;20016;-74
2024/04/22 01:27:36;;;;;;;7.10;4.05;;;;;;;4.10;68.56;96959.22;5213191;27;20003;-74
2024/04/22 01:30:05;;;;;;;4.85;3.72;;;;;;;4.13;68.16;96963.28;5213033;27;20022;-74
2024/04/22 01:32:34;;;;;;;5.28;3.88;;;;;;;4.16;68.71;96957.06;5212928;27;20367;-74
2024/04/22 01:35:03;;;;;;;4.22;3.55;;;;;;;4.18;68.80;96952.59;5213127;27;20051;-74
2024/04/22 01:37:33;;;;;;;3.85;3.33;;;;;;;4.23;69.64;96953.81;5213207;27;20014;-74
2024/04/22 01:40:03;;;;;;;5.60;3.72;;;;;;;4.27;71.61;96951.78;5213510;27;20333;-74
2024/04/22 01:42:32;;;;;;;5.53;4.20;;;;;;;4.31;70.61;96955.75;5213506;27;20000;-74
2024/04/22 01:44:59;;;;;;;5.03;3.85;;;;;;;4.33;69.77;96959.00;5213371;27;20079;-74
2024/04/22 01:47:28;;;;;;;5.68;3.80;;;;;;;4.32;69.98;96952.19;5219681;27;20004;-73
2024/04/22 01:49:55;;;;;;;6.95;4.03;;;;;;;4.30;69.73;96954.91;5232398;27;20003;-73
2024/04/22 01:52:24;;;;;;;6.28;4.40;;;;;;;4.30;69.74;96954.09;5233063;27;20005;-73
2024/04/22 01:54:51;;;;;;;4.35;3.53;;;;;;;4.29;69.51;96958.44;5214859;27;20003;-74
2024/04/22 01:57:23;;;;;;;5.43;3.67;;;;;;;4.24;68.79;96957.19;5213047;27;20348;-74
2024/04/22 01:59:50;;;;;;;6.28;4.40;;;;;;;4.17;68.74;96953.53;5213376;27;20008;-74
2024/04/22 02:02:19;;;;;;;4.55;4.07;;;;;;;4.13;68.73;96948.66;5213380;27;20468;-74
2024/04/22 02:04:46;;;;;;;5.97;3.80;;;;;;;4.09;68.97;96949.84;5213296;27;20004;-74
2024/04/22 02:07:15;;;;;;;4.95;3.50;;;;;;;4.05;68.84;96956.22;5212499;27;20003;-74
2024/04/22 02:09:42;;;;;;;4.07;3.60;;;;;;;4.03;68.50;96952.97;5212619;27;20340;-74
2024/04/22 02:12:11;;;;;;;4.93;4.07;;;;;;;3.97;68.08;96944.94;5212720;27;20011;-74
2024/04/22 02:14:40;;;;;;;5.03;4.13;;;;;;;3.90;67.81;96942.88;5212274;27;20004;-74
2024/04/22 02:17:09;;;;;;;4.22;3.53;;;;;;;3.88;67.54;96938.78;5212004;27;20348;-73
2024/04/22 02:19:36;;;;;;;4.88;3.63;;;;;;;3.85;68.19;96936.47;5212596;27;20008;-74
2024/04/22 02:22:06;;;;;;;5.00;3.72;;;;;;;3.84;68.99;96942.56;5212566;27;20492;-74
2024/04/22 02:24:33;;;;;;;5.13;4.05;;;;;;;3.86;69.58;96945.84;5212429;27;20003;-74
2024/04/22 02:27:02;;;;;;;5.85;3.88;;;;;;;3.87;69.20;96942.31;5212354;27;20491;-74
2024/04/22 02:29:29;;;;;;;5.57;4.20;;;;;;;3.86;68.68;96945.84;5212367;27;20015;-74
2024/04/22 02:32:01;;;;;;;3.58;3.00;;;;;;;3.83;67.92;96951.28;5212414;27;20458;-74
2024/04/22 02:34:27;;;;;;;5.03;2.87;;;;;;;3.77;67.48;96949.22;5211692;27;20468;-73
2024/04/22 02:36:57;;;;;;;4.18;3.05;;;;;;;3.72;67.64;96945.25;5212287;27;20235;-74
2024/04/22 02:39:23;;;;;;;2.97;2.72;;;;;;;3.72;67.35;96950.41;5212425;27;20008;-74
2024/04/22 02:41:53;;;;;;;3.33;2.65;;;;;;;3.72;67.11;96950.41;5212471;27;20007;-74
2024/04/22 02:44:19;;;;;;;3.90;3.08;;;;;;;3.71;67.15;96945.38;5212332;27;20015;-74
2024/04/22 02:46:49;;;;;;;6.15;3.65;;;;;;;3.68;66.32;96949.03;5212391;27;20014;-74
2024/04/22 02:49:18;;;;;;;3.92;2.55;;;;;;;3.65;66.07;96946.72;5212261;27;20015;-73
2024/04/22 02:51:47;;;;;;;3.83;2.65;;;;;;;3.65;66.64;96951.06;5212110;27;20000;-74
2024/04/22 02:54:14;;;;;;;4.63;2.63;;;;;;;3.59;66.12;96949.81;5212143;27;20348;-74
2024/04/22 02:56:43;;;;;;;4.40;3.10;;;;;;;3.60;66.71;96948.88;5211389;27;20004;-74
2024/04/22 02:59:10;;;;;;;6.40;3.40;;;;;;;3.61;66.40;96947.94;5212231;27;20003;-74
2024/04/22 03:01:39;;;;;;;5.63;2.67;;;;;;;3.64;66.59;96949.44;5212377;27;20007;-74
2024/04/22 03:04:06;;;;;;;3.55;2.88;;;;;;;3.65;66.65;96954.47;5213061;27;20004;-74
2024/04/22 03:06:38;;;;;;;5.15;2.80;;;;;;;3.67;66.45;96942.25;5211408;27;20004;-73
2024/04/22 03:09:05;;;;;;;3.42;2.58;;;;;;;3.70;66.07;96949.72;5211899;27;20010;-74
2024/04/22 03:11:34;;;;;;;3.72;2.67;;;;;;;3.69;65.37;96942.09;5211815;27;20004;-74
2024/04/22 03:14:01;;;;;;;3.08;2.45;;;;;;;3.67;65.57;96937.09;5211753;27;20347;-74
2024/04/22 03:16:30;;;;;;;5.85;2.72;;;;;;;3.69;66.51;96942.09;5229226;21;20000;-90
2024/04/22 03:18:57;;;;;;;2.58;2.38;;;;;;;3.71;66.02;96948.78;5201869;27;20008;-91
2024/04/22 03:21:27;;;;;;;3.92;2.17;;;;;;;3.71;65.73;96953.94;5201859;27;19997;-91
2024/04/22 03:23:56;;;;;;;4.10;2.70;;;;;;;3.68;65.24;96949.03;5201683;27;19992;-90
2024/04/22 03:26:26;;;;;;;3.70;2.53;;;;;;;3.68;66.23;96949.03;5201561;27;19993;-90
2024/04/22 03:28:53;;;;;;;3.47;2.67;;;;;;;3.68;66.10;96936.16;5201892;27;20028;-91
2024/04/22 03:31:23;;;;;;;5.95;2.40;;;;;;;3.67;65.71;96947.41;5201786;27;20041;-91
2024/04/22 03:33:50;;;;;;;2.92;2.42;;;;;;;3.65;65.76;96943.31;5201730;27;20003;-90
2024/04/22 03:36:21;;;;;;;4.72;2.63;;;;;;;3.61;65.98;96942.78;5201268;27;19996;-90
2024/04/22 03:38:50;;;;;;;4.70;2.70;;;;;;;3.58;65.75;96945.59;5201734;27;20041;-91
2024/04/22 03:41:27;;;;;;;5.30;2.95;;;;;;;3.55;66.15;96947.63;5201654;27;20003;-90
2024/04/22 03:43:56;;;;;;;3.83;2.67;;;;;;;3.51;66.24;96949.66;5201582;27;20432;-90
2024/04/22 03:51:57;;;;;;;5.03;2.72;;;;;;;3.50;67.52;96942.88;5201602;27;20007;-90
2024/04/22 03:54:27;;;;;;;4.47;3.10;;;;;;;3.53;68.07;96945.19;5201478;27;20007;-90
2024/04/22 03:56:59;;;;;;;4.85;3.10;;;;;;;3.55;67.88;96945.88;5201383;27;20007;-89
2024/04/22 03:59:28;;;;;;;5.00;3.45;;;;;;;3.51;67.75;96931.59;5201478;27;19997;-90
2024/04/22 04:01:55;;;;;;;4.35;3.13;;;;;;;3.50;67.82;96941.09;5201547;27;20044;-89
2024/04/22 04:04:25;;;;;;;4.35;3.42;;;;;;;3.47;68.02;96932.78;5201325;27;20011;-90
2024/04/22 04:06:52;;;;;;;7.32;4.18;;;;;;;3.46;67.82;96934.56;5200988;27;20007;-89
2024/04/22 04:09:23;;;;;;;3.97;3.30;;;;;;;3.45;67.86;96932.09;5201492;27;19992;-88
2024/04/22 04:11:51;;;;;;;6.47;3.17;;;;;;;3.46;67.95;96933.75;5201284;27;20021;-90
2024/04/22 04:14:23;;;;;;;3.70;3.22;;;;;;;3.44;68.12;96935.63;5201173;27;20017;-89
2024/04/22 04:16:50;;;;;;;3.45;2.83;;;;;;;3.44;67.92;96936.44;5200667;27;20040;-91
2024/04/22 04:19:20;;;;;;;4.00;2.90;;;;;;;3.45;67.98;96937.25;5201217;27;20011;-91
2024/04/22 04:21:46;;;;;;;5.78;3.00;;;;;;;3.41;67.79;96925.56;5201200;27;19993;-91
2024/04/22 04:24:17;;;;;;;3.30;2.90;;;;;;;3.41;68.08;96931.56;5200855;27;20017;-90
2024/04/22 04:26:44;;;;;;;4.20;2.85;;;;;;;3.42;67.81;96922.06;5200667;27;19996;-90
2024/04/22 04:29:14;;;;;;;4.93;2.97;;;;;;;3.41;67.81;96928.16;5201140;27;19997;-91
2024/04/22 04:31:43;;;;;;;5.30;3.00;;;;;;;3.39;68.51;96928.28;5201100;27;20003;-89
2024/04/22 04:34:13;;;;;;;4.07;3.17;;;;;;;3.44;69.07;96927.91;5201137;27;20033;-89
2024/04/22 04:36:41;;;;;;;5.13;3.95;;;;;;;3.46;68.88;96920.84;5200407;27;19997;-91
2024/04/22 04:39:10;;;;;;;4.43;3.92;;;;;;;3.47;68.94;96928.44;5200855;27;20040;-90
2024/04/22 04:41:38;;;;;;;4.30;3.33;;;;;;;3.50;69.59;96930.78;5200926;27;20004;-89
2024/04/22 04:44:07;;;;;;;5.65;3.75;;;;;;;3.53;69.67;96929.69;5200801;27;20044;-90
2024/04/22 04:46:34;;;;;;;5.68;3.60;;;;;;;3.53;69.09;96928.91;5200394;27;20009;-89
2024/04/22 04:49:07;;;;;;;4.00;3.30;;;;;;;3.54;69.43;96935.66;5200758;27;19997;-90
2024/04/22 04:51:34;;;;;;;6.88;3.60;;;;;;;3.54;69.16;96933.09;5200753;27;20014;-90
2024/04/22 04:54:04;;;;;;;6.10;3.67;;;;;;;3.55;69.39;96932.97;5200658;27;20012;-88
2024/04/22 04:56:31;;;;;;;6.30;3.30;;;;;;;3.58;69.33;96927.53;5200199;27;20089;-92
2024/04/22 04:59:01;;;;;;;4.60;3.28;;;;;;;3.61;68.49;96935.03;5200104;27;20004;-89
2024/04/22 05:01:28;;;;;;;9.05;4.25;;;;;;;3.62;69.09;96938.44;5200628;27;19997;-90
2024/04/22 05:03:58;;;;;;;3.97;3.10;;;;;;;3.64;68.86;96941.69;5200430;27;20016;-90
2024/04/22 05:06:29;;;;;;;3.85;3.28;;;;;;;3.61;67.68;96950.50;5200260;27;20000;-89
2024/04/22 05:08:58;;;;;;;5.50;3.35;;;;;;;3.58;67.76;96945.59;5200519;27;19997;-89
2024/04/22 05:11:25;;;;;;;3.95;3.13;;;;;;;3.56;66.74;96934.59;5200364;27;19996;-91
2024/04/22 05:13:55;;;;;;;4.95;2.67;;;;;;;3.51;66.53;96942.72;5200420;27;20012;-89
2024/04/22 05:16:22;;;;;;;6.25;3.58;;;;;;;3.46;66.52;96947.47;5199794;27;19993;-90
2024/04/22 05:18:51;;;;;;;4.95;2.88;;;;;;;3.45;66.20;96947.56;5200020;27;20000;-87
2024/04/22 05:21:18;;;;;;;4.75;2.88;;;;;;;3.44;66.03;96951.13;5199719;27;20004;-91
2024/04/22 05:23:50;;;;;;;3.65;2.92;;;;;;;3.46;65.41;96949.22;5200237;27;19996;-89
2024/04/22 05:26:17;;;;;;;3.03;2.38;;;;;;;3.45;65.22;96952.72;5199681;27;20056;-89
2024/04/22 05:28:47;;;;;;;5.28;3.13;;;;;;;3.42;64.99;96958.16;5200025;27;19997;-90
2024/04/22 05:31:14;;;;;;;3.40;2.67;;;;;;;3.34;65.13;96950.25;5200084;27;20012;-89
2024/04/22 05:36:29;;;;;;;5.25;3.47;;;;;;;3.27;65.14;96952.50;5199649;27;19995;-90
2024/04/22 05:39:01;;;;;;;6.50;3.30;;;;;;;3.29;65.71;96953.22;5199908;27;20007;-88
2024/04/22 05:41:31;;;;;;;5.50;3.10;;;;;;;3.34;64.91;96945.09;5199664;27;20008;-89
2024/04/22 05:44:00;;;;;;;2.67;2.47;;;;;;;3.34;64.67;96956.19;5199574;27;20009;-91
2024/04/22 05:46:30;;;;;;;4.38;2.60;;;;;;;3.38;64.24;96946.47;5199303;27;20015;-91
2024/04/22 05:48:59;;;;;;;5.93;2.72;;;;;;;3.37;63.77;96945.66;5199879;27;20011;-89
2024/04/22 05:51:29;;;;;;;5.05;2.50;;;;;;;3.36;64.06;96940.63;5199668;27;20037;-90
2024/04/22 05:53:59;;;;;;;5.90;2.40;;;;;;;3.38;63.40;96943.88;5199610;27;20003;-89
2024/04/22 05:56:28;;;;;;;5.40;2.85;;;;;;;3.41;63.40;96951.34;5199258;27;19997;-91
2024/04/22 05:58:55;;;;;;;5.05;2.95;;;;;;;3.37;63.01;96950.81;5199571;27;19996;-90
2024/04/22 06:01:25;;;;;;;3.55;2.60;;;;;;;3.36;63.30;96958.66;5199510;27;19996;-89
2024/04/22 06:03:52;;;;;;;7.38;2.53;;;;;;;3.37;62.93;96955.13;5199759;27;20008;-89
2024/04/22 06:06:21;;;;;;;7.05;3.00;;;;;;;3.35;62.74;96959.63;5198969;27;20008;-89
2024/04/22 06:08:48;;;;;;;2.88;2.08;;;;;;;3.37;62.63;96962.88;5199467;27;19998;-89
2024/04/22 06:11:20;;;;;;;3.50;2.55;;;;;;;3.38;62.14;96961.94;5202586;27;19996;-90
2024/04/22 06:13:47;;;;;;;3.10;2.67;;;;;;;3.41;62.80;96961.66;5202901;27;20000;-90
2024/04/22 06:16:17;;;;;;;3.05;2.25;;;;;;;3.45;62.49;96968.22;5202296;27;19996;-89
2024/04/22 06:18:44;;;;;;;3.80;2.42;;;;;;;3.52;62.57;96964.19;5202878;27;20036;-91
2024/04/22 06:21:14;;;;;;;4.13;3.05;;;;;;;3.57;62.06;96968.97;5202630;27;19997;-89
2024/04/22 06:23:41;;;;;;;3.83;2.47;;;;;;;3.55;62.11;96963.94;5202685;27;20004;-89
2024/04/22 06:26:10;;;;;;;4.22;2.58;;;;;;;3.55;61.92;96973.44;5202261;27;20023;-89
2024/04/22 06:28:40;;;;;;;2.83;2.17;;;;;;;3.51;61.64;96973.66;5202888;27;20001;-90
2024/04/22 06:31:09;;;;;;;6.88;2.55;;;;;;;3.52;62.15;96974.50;5202669;27;20001;-90
2024/04/22 06:33:42;;;;;;;4.18;2.70;;;;;;;3.57;62.72;96969.78;5202688;27;20003;-89
2024/04/22 06:36:12;;;;;;;5.07;2.63;;;;;;;3.63;63.35;96973.59;5202260;27;20008;-92
2024/04/22 06:38:40;;;;;;;4.95;3.50;;;;;;;3.71;64.21;96976.34;5202624;27;20240;-91
2024/04/22 06:41:09;;;;;;;6.10;3.40;;;;;;;3.79;64.73;96976.50;5202602;27;19993;-89
2024/04/22 06:43:37;;;;;;;8.18;3.78;;;;;;;3.90;64.55;96984.16;5202503;27;20009;-91
2024/04/22 06:46:11;;;;;;;6.32;2.83;;;;;;;3.95;62.60;96981.19;5201841;27;19997;-90
2024/04/22 06:48:38;;;;;;;3.92;2.97;;;;;;;4.01;63.67;96980.66;5202374;27;19996;-89
2024/04/22 06:51:07;;;;;;;3.47;2.63;;;;;;;4.06;63.23;96981.06;5202249;27;20007;-90
2024/04/22 06:53:34;;;;;;;6.25;3.10;;;;;;;4.10;63.50;96987.63;5202314;27;20011;-90
2024/04/22 06:56:04;;;;;;;6.90;3.03;;;;;;;4.16;62.45;96983.69;5201941;27;20003;-90
2024/04/22 06:58:30;;;;;;;7.45;3.20;;;;;;;4.21;62.91;96978.94;5202116;27;19996;-90
2024/04/22 07:01:00;;;;;;;3.35;2.30;;;;;;;4.29;62.97;96988.63;5202205;27;20008;-90
2024/04/22 07:03:30;;;;;;;3.53;2.58;;;;;;;4.42;62.83;96989.19;5202212;27;20003;-91
2024/04/22 07:06:00;;;;;;;3.25;2.60;;;;;;;4.54;62.49;96989.88;5201611;27;20060;-89
2024/04/22 07:08:27;;;;;;;3.50;2.90;;;;;;;4.67;62.22;96994.78;5202025;27;20001;-92
2024/04/22 07:10:57;;;;;;;3.42;2.42;;;;;;;4.81;60.96;96986.66;5202025;27;19993;-90
2024/04/22 07:13:23;;;;;;;5.20;2.78;;;;;;;4.87;60.25;96993.84;5201889;27;20028;-91
2024/04/22 07:15:53;;;;;;;2.92;2.30;;;;;;;4.89;60.20;96989.34;5201515;27;20011;-91
2024/04/22 07:18:20;;;;;;;4.07;2.53;;;;;;;5.02;60.05;96990.84;5201963;27;19997;-89
2024/04/22 07:20:52;;;;;;;4.15;2.65;;;;;;;5.12;59.28;96992.47;5201577;27;19996;-89
2024/04/22 07:23:19;;;;;;;6.45;2.55;;;;;;;5.19;59.51;96990.16;5201823;27;20008;-91
2024/04/22 07:25:49;;;;;;;3.75;2.70;;;;;;;5.28;60.14;96997.06;5201416;27;20041;-87
2024/04/22 07:28:17;;;;;;;4.85;2.78;;;;;;;5.40;59.59;96994.31;5201816;27;20005;-90
2024/04/22 07:30:46;;;;;;;3.55;2.50;;;;;;;5.45;58.81;97002.50;5202189;27;20000;-90
2024/04/22 07:33:14;;;;;;;5.57;2.65;;;;;;;5.45;57.87;97005.09;5201746;27;20008;-90
2024/04/22 07:35:50;;;;;;;4.78;3.05;;;;;;;5.40;57.17;96996.91;5201403;27;20000;-92
2024/04/22 07:38:25;;;;;;;4.78;2.90;;;;;;;5.35;58.28;96998.16;5201619;27;19996;-90
2024/04/22 07:40:55;;;;;;;6.18;2.63;;;;;;;5.32;58.17;97008.78;5201678;27;20008;-89
2024/04/22 07:43:23;;;;;;;5.30;3.08;;;;;;;5.29;57.97;97010.81;5201594;27;20004;-90
2024/04/22 07:45:52;;;;;;;5.40;2.90;;;;;;;5.27;57.75;97000.63;5201202;27;20090;-92
2024/04/22 07:48:20;;;;;;;6.93;2.88;;;;;;;5.37;59.03;97000.59;5201537;27;20008;-91
2024/04/22 07:50:50;;;;;;;6.07;3.58;;;;;;;5.52;58.60;97008.75;5201491;27;19997;-89
2024/04/22 07:53:17;;;;;;;9.57;3.38;;;;;;;5.64;57.93;97010.22;5201587;27;19993;-90
2024/04/22 07:55:50;;;;;;;6.60;3.42;;;;;;;5.73;56.97;97005.97;5200979;27;20009;-89
2024/04/22 07:58:18;;;;;;;10.80;2.88;;;;;;;5.87;58.00;97009.88;5201408;27;20033;-89
2024/04/22 08:00:48;;;;;;;4.22;2.83;;;;;;;6.06;58.40;97007.25;5201333;27;20011;-90
2024/04/22 08:03:36;;;;;;;11.30;3.22;;;;;;;6.31;56.70;97015.28;5201699;27;19996;-91
2024/04/22 08:06:23;;;;;;;6.03;2.30;;;;;;;6.60;55.76;97010.75;5200938;27;20045;-89
2024/04/22 08:08:50;;;;;;;4.43;3.13;;;;;;;6.77;55.29;97006.53;5201358;27;20004;-89
2024/04/22 08:11:27;;;;;;;3.78;2.42;;;;;;;7.02;53.45;97009.38;5201265;27;19992;-89
2024/04/22 08:13:54;;;;;;;4.00;2.20;;;;;;;7.28;55.21;96999.03;5201340;27;20020;-90
2024/04/22 08:16:23;;;;;;;4.82;2.35;;;;;;;7.59;54.58;97004.59;5200967;27;20007;-90
2024/04/22 08:18:50;;;;;;;2.55;1.98;;;;;;;7.83;53.16;97016.09;5201279;27;20008;-91
2024/04/22 08:21:20;;;;;;;3.72;1.90;;;;;;;7.94;52.35;97008.03;5201148;27;20004;-89
2024/04/22 08:23:47;;;;;;;3.50;2.22;;;;;;;7.96;51.35;97007.84;5201073;27;20000;-88
2024/04/22 08:26:18;;;;;;;5.57;2.60;;;;;;;7.93;50.78;97002.97;5200646;27;19992;-89
2024/04/22 08:28:49;;;;;;;2.47;1.83;;;;;;;7.91;50.21;96999.72;5201069;27;20015;-89
2024/04/22 08:31:22;;;;;;;4.95;2.25;;;;;;;8.02;50.52;97007.25;5199173;27;20005;-87
2024/04/22 08:33:56;;;;;;;3.33;2.00;;;;;;;8.25;51.69;97003.13;5199245;27;20005;-86
2024/04/22 08:36:29;;;;;;;5.03;2.40;;;;;;;8.51;51.42;97004.88;5199237;27;20000;-88
2024/04/22 08:38:58;;;;;;;;;;;;;;;8.70;51.08;97006.34;5201133;27;20041;-89
2024/04/22 08:41:38;;;;;;;10.05;2.17;;;;;;;8.86;49.25;97000.38;5201093;27;19920;-90
2024/04/22 08:44:16;;;;;;;3.97;2.30;;;;;;;9.07;49.62;96995.53;5200868;27;19993;-92
2024/04/22 08:46:46;;;;;;;2.85;2.55;;;;;;;9.23;49.03;96997.31;5200174;27;20012;-89
2024/04/22 08:49:13;;;;;;;2.88;2.10;;;;;;;9.23;48.35;97009.50;5200825;27;19992;-88
2024/04/22 08:51:44;;;;;;;5.55;2.20;;;;;;;9.07;47.34;96997.28;5200607;27;20017;-89
2024/04/22 08:54:10;;;;;;;4.78;2.30;;;;;;;8.93;47.02;97011.75;5200709;27;19997;-90
2024/04/22 08:56:41;;;;;;;4.50;2.55;;;;;;;8.79;47.23;97012.38;5200155;27;20001;-90
2024/04/22 08:59:08;;;;;;;3.45;2.10;;;;;;;8.74;47.51;97012.06;5200533;27;20036;-87
2024/04/22 09:02:00;;;;;;;3.78;2.22;;;;;;;8.72;45.46;97014.00;5200577;27;20045;-89
2024/04/22 09:04:27;;;;;;;3.83;2.30;;;;;;;8.74;46.79;97004.25;5200531;27;20024;-91
2024/04/22 09:06:57;;;;;;;2.80;2.10;;;;;;;8.83;47.30;97008.50;5199867;27;20045;-90
2024/04/22 09:09:25;;;;;;;5.57;2.08;;;;;;;8.86;46.60;97011.59;5200494;27;20049;-90
2024/04/22 09:12:18;;;;;;;2.70;1.98;;;;;;;8.70;45.30;97005.53;5200507;27;20009;-89
2024/04/22 09:14:57;;;;;;;3.13;2.00;;;;;;;8.63;46.80;97005.38;5200271;27;20054;-89
2024/04/22 09:17:29;;;;;;;9.05;2.47;;;;;;;8.60;45.51;97008.31;5242391;22;20018;-73
2024/04/22 09:19:56;;;;;;;5.07;2.00;;;;;;;8.54;46.13;97007.13;5226688;27;20016;-73
2024/04/22 09:22:26;;;;;;;4.43;2.50;;;;;;;8.45;45.44;97010.69;5214971;27;20000;-74
2024/04/22 09:24:52;;;;;;;2.35;1.90;;;;;;;8.23;45.37;97005.06;5211725;27;20030;-74
2024/04/22 09:27:26;;;;;;;2.70;2.20;;;;;;;8.10;45.73;96994.28;5210530;27;20018;-73
2024/04/22 09:29:59;;;;;;;6.00;2.20;;;;;;;8.07;45.27;96996.38;5209916;27;20037;-74
2024/04/22 09:32:33;;;;;;;12.20;2.38;;;;;;;8.09;45.86;96990.09;5217688;27;20004;-73
2024/04/22 09:35:12;;;;;;;6.18;2.15;;;;;;;8.21;45.41;96986.22;5227520;27;20000;-74
2024/04/22 09:37:48;;;;;;;13.98;2.70;;;;;;;8.22;45.51;96979.22;5224394;27;20004;-74
2024/04/22 09:40:17;;;;;;;5.20;2.03;;;;;;;8.15;45.37;96986.03;5216677;27;20004;-74
2024/04/22 09:42:48;;;;;;;4.03;1.60;;;;;;;8.09;45.62;96984.88;5209519;27;20499;-74
2024/04/22 09:45:15;;;;;;;2.00;1.80;;;;;;;7.99;44.92;96976.38;5212691;27;20347;-74
2024/04/22 09:47:48;;;;;;;2.38;1.60;;;;;;;7.93;44.35;96977.00;5212701;27;20018;-74
2024/04/22 09:50:18;;;;;;;2.90;2.00;;;;;;;8.05;45.33;96973.19;5212651;27;20019;-74
2024/04/22 09:52:47;;;;;;;3.05;2.03;;;;;;;8.25;46.14;96976.31;5212797;27;20019;-74
2024/04/22 09:55:17;;;;;;;2.75;1.98;;;;;;;8.44;45.36;96975.28;5212760;27;20000;-74
2024/04/22 09:57:46;;;;;;;2.47;2.10;;;;;;;8.53;45.22;96979.53;5212101;27;20004;-74
2024/04/22 10:00:18;;;;;;;4.72;2.55;;;;;;;8.63;44.90;96968.97;5212793;27;19999;-74
2024/04/22 10:02:47;;;;;;;4.53;2.63;;;;;;;8.64;44.38;96968.00;5212710;27;20008;-74
2024/04/22 10:05:18;;;;;;;4.40;2.40;;;;;;;8.57;44.60;96973.03;5212568;27;20015;-74
2024/04/22 10:07:44;;;;;;;4.53;2.15;;;;;;;8.59;45.21;96968.50;5212398;27;20079;-74
2024/04/22 10:10:14;;;;;;;3.42;1.80;;;;;;;8.58;44.56;96959.03;5212695;27;20015;-74
2024/04/22 10:12:41;;;;;;;2.63;2.05;;;;;;;8.66;45.31;96953.06;5212757;27;20003;-74
2024/04/22 10:15:13;;;;;;;2.10;1.83;;;;;;;8.81;44.36;96953.22;5212368;27;20016;-74
2024/04/22 10:17:43;;;;;;;3.23;2.47;;;;;;;8.89;43.80;96958.41;5212203;27;20060;-74
2024/04/22 10:20:16;;;;;;;6.88;2.47;;;;;;;8.83;42.82;96953.88;5212567;27;20015;-73
2024/04/22 10:22:44;;;;;;;8.15;2.33;;;;;;;8.85;43.83;96954.50;5214205;27;20015;-74
2024/04/22 10:25:20;;;;;;;8.07;2.20;;;;;;;8.98;41.02;96947.03;5212802;27;20019;-74
2024/04/22 10:27:47;;;;;;;2.38;1.55;;;;;;;9.15;42.56;96947.03;5212817;27;20011;-74
2024/04/22 10:30:16;;;;;;;5.88;2.40;;;;;;;9.36;42.38;96942.13;5212600;27;20008;-74
2024/04/22 10:32:43;;;;;;;2.90;1.80;;;;;;;9.46;42.31;96939.34;5212459;27;20464;-74
2024/04/22 10:35:15;;;;;;;2.03;1.83;;;;;;;9.47;42.90;96936.59;5211969;27;20003;-74
2024/04/22 10:37:42;;;;;;;4.95;2.00;;;;;;;9.63;42.76;96934.91;5211784;27;20008;-74
2024/04/22 10:40:12;;;;;;;2.45;2.25;;;;;;;9.69;43.17;96936.84;5212237;27;20015;-74
2024/04/22 10:42:39;;;;;;;2.55;2.13;;;;;;;9.73;42.66;96935.53;5212163;27;20014;-74
2024/04/22 10:45:08;;;;;;;6.93;2.60;;;;;;;9.74;41.84;96937.16;5212280;27;20000;-74
2024/04/22 10:47:35;;;;;;;3.50;2.50;;;;;;;9.59;41.90;96928.41;5211468;27;20015;-74
2024/04/22 10:50:05;;;;;;;2.58;2.13;;;;;;;9.41;41.72;96926.81;5211803;27;20393;-74
2024/04/22 10:52:36;;;;;;;3.55;2.50;;;;;;;9.32;41.95;96934.81;5211674;27;20493;-74
2024/04/22 10:55:06;;;;;;;4.97;2.40;;;;;;;9.28;42.27;96932.53;5211708;27;20347;-74
2024/04/22 10:57:33;;;;;;;4.25;2.47;;;;;;;9.33;42.21;96915.63;5211904;27;20023;-74
2024/04/22 11:00:03;;;;;;;3.28;2.35;;;;;;;9.45;42.92;96919.50;5217386;27;20008;-75
2024/04/22 11:02:31;;;;;;;6.05;2.33;;;;;;;9.61;42.68;96906.41;5230562;27;20008;-75
2024/04/22 11:05:02;;;;;;;3.42;2.08;;;;;;;9.72;42.40;96910.47;5231215;27;20033;-74
2024/04/22 11:07:30;;;;;;;4.03;1.98;;;;;;;9.81;42.49;96906.03;5230442;27;20004;-73
2024/04/22 11:10:02;;;;;;;3.05;2.38;;;;;;;9.86;40.72;96901.94;5219936;27;20018;-74
2024/04/22 11:12:29;;;;;;;2.58;2.38;;;;;;;9.80;40.53;96897.41;5216900;27;20460;-74
2024/04/22 11:15:00;;;;;;;4.65;1.92;;;;;;;9.68;41.03;96902.16;5212236;27;20014;-73
2024/04/22 11:17:27;;;;;;;2.70;1.95;;;;;;;9.63;40.12;96898.44;5211841;27;20019;-74
2024/04/22 11:19:56;;;;;;;2.20;1.80;;;;;;;9.59;39.92;96902.38;5212261;27;20495;-73
2024/04/22 11:22:23;;;;;;;3.08;2.08;;;;;;;9.66;40.50;96898.09;5212351;27;20003;-74
2024/04/22 11:24:52;;;;;;;4.22;2.10;;;;;;;9.81;40.17;96891.19;5212791;27;20004;-74
2024/04/22 11:27:22;;;;;;;2.13;1.50;;;;;;;9.94;39.00;96895.88;5211614;27;20004;-73
2024/04/22 11:29:51;;;;;;;2.13;1.42;;;;;;;9.98;39.10;96893.75;5211529;27;20003;-74
2024/04/22 11:32:18;;;;;;;2.60;2.08;;;;;;;9.99;38.40;96892.75;5211401;27;20015;-74
2024/04/22 11:34:48;;;;;;;3.50;1.95;;;;;;;9.95;38.58;96896.66;5213547;27;20043;-74
2024/04/22 11:37:15;;;;;;;1.80;1.60;;;;;;;9.97;38.93;96897.31;5211464;27;20079;-74
2024/04/22 11:39:45;;;;;;;2.55;2.10;;;;;;;9.94;38.49;96889.84;5211876;27;20016;-74
2024/04/22 11:42:12;;;;;;;1.83;1.70;;;;;;;9.87;39.08;96885.31;5211947;27;20004;-74
2024/04/22 11:44:44;;;;;;;5.55;1.77;;;;;;;9.96;39.21;96885.28;5211699;27;20003;-74
2024/04/22 11:47:12;;;;;;;2.30;2.00;;;;;;;10.03;38.90;96883.59;5211323;27;20008;-74
2024/04/22 11:49:41;;;;;;;6.10;2.42;;;;;;;9.99;38.93;96890.13;5211961;27;20004;-74
2024/04/22 11:52:08;;;;;;;4.40;2.38;;;;;;;9.91;39.24;96883.19;5211451;27;20007;-74
2024/04/22 11:54:38;;;;;;;2.35;2.05;;;;;;;9.78;39.35;96885.53;5213755;27;20003;-74
2024/04/22 11:57:04;;;;;;;2.28;2.03;;;;;;;9.60;39.55;96875.31;5211363;27;20022;-74
2024/04/22 11:59:34;;;;;;;4.55;2.05;;;;;;;9.51;39.79;96874.56;5212229;27;20003;-73